sensor_id;sensor_type;location;lat;lon;timestamp;temperature;humidity
33007;DHT22;19361;51.598;7.650;2023-09-12T00:03:49;25.80;53.90
33007;DHT22;19361;51.598;7.650;2023-09-12T00:08:51;25.70;53.90
33007;DHT22;19361;51.598;7.650;2023-09-12T00:13:52;25.70;54.00
33007;DHT22;19361;51.598;7.650;2023-09-12T00:18:52;25.60;53.50
33007;DHT22;19361;51.598;7.650;2023-09-12T00:23:53;25.50;53.10
33007;DHT22;19361;51.598;7.650;2023-09-12T00:28:54;25.50;54.00
33007;DHT22;19361;51.598;7.650;2023-09-12T00:33:54;25.40;53.40
33007;DHT22;19361;51.598;7.650;2023-09-12T00:38:55;25.30;53.70
33007;DHT22;19361;51.598;7.650;2023-09-12T00:43:55;25.20;53.90
33007;DHT22;19361;51.598;7.650;2023-09-12T00:48:56;25.20;53.70
33007;DHT22;19361;51.598;7.650;2023-09-12T00:53:57;25.10;54.80
33007;DHT22;19361;51.598;7.650;2023-09-12T00:58:58;25.00;54.30
33007;DHT22;19361;51.598;7.650;2023-09-12T01:03:59;24.90;54.40
33007;DHT22;19361;51.598;7.650;2023-09-12T01:09:00;24.90;55.40
33007;DHT22;19361;51.598;7.650;2023-09-12T01:14:00;24.80;55.70
33007;DHT22;19361;51.598;7.650;2023-09-12T01:19:01;24.80;55.00
33007;DHT22;19361;51.598;7.650;2023-09-12T01:24:31;24.80;56.20
33007;DHT22;19361;51.598;7.650;2023-09-12T01:29:34;24.70;56.40
33007;DHT22;19361;51.598;7.650;2023-09-12T01:34:35;24.60;56.20
33007;DHT22;19361;51.598;7.650;2023-09-12T01:39:36;24.60;56.30
33007;DHT22;19361;51.598;7.650;2023-09-12T01:44:36;24.60;56.50
33007;DHT22;19361;51.598;7.650;2023-09-12T01:49:39;24.60;56.20
33007;DHT22;19361;51.598;7.650;2023-09-12T01:54:40;24.60;56.40
33007;DHT22;19361;51.598;7.650;2023-09-12T01:59:41;24.50;58.50
33007;DHT22;19361;51.598;7.650;2023-09-12T02:05:27;24.50;58.10
33007;DHT22;19361;51.598;7.650;2023-09-12T02:10:03;24.50;58.50
33007;DHT22;19361;51.598;7.650;2023-09-12T02:15:05;24.40;58.60
33007;DHT22;19361;51.598;7.650;2023-09-12T02:20:09;24.40;58.40
33007;DHT22;19361;51.598;7.650;2023-09-12T02:25:10;24.40;57.80
33007;DHT22;19361;51.598;7.650;2023-09-12T02:30:10;24.30;57.60
33007;DHT22;19361;51.598;7.650;2023-09-12T02:35:11;24.30;57.90
33007;DHT22;19361;51.598;7.650;2023-09-12T02:40:12;24.30;58.40
33007;DHT22;19361;51.598;7.650;2023-09-12T02:45:14;24.30;57.90
33007;DHT22;19361;51.598;7.650;2023-09-12T02:50:15;24.30;58.40
33007;DHT22;19361;51.598;7.650;2023-09-12T02:55:15;24.30;57.70
33007;DHT22;19361;51.598;7.650;2023-09-12T03:00:16;24.20;57.80
33007;DHT22;19361;51.598;7.650;2023-09-12T03:05:17;24.20;57.60
33007;DHT22;19361;51.598;7.650;2023-09-12T03:10:17;24.20;57.70
33007;DHT22;19361;51.598;7.650;2023-09-12T03:15:18;24.20;57.50
33007;DHT22;19361;51.598;7.650;2023-09-12T03:20:18;24.20;57.80
33007;DHT22;19361;51.598;7.650;2023-09-12T03:25:19;24.10;58.60
33007;DHT22;19361;51.598;7.650;2023-09-12T03:30:20;24.10;57.60
33007;DHT22;19361;51.598;7.650;2023-09-12T03:35:21;24.10;57.70
33007;DHT22;19361;51.598;7.650;2023-09-12T03:40:21;24.10;57.80
33007;DHT22;19361;51.598;7.650;2023-09-12T03:45:22;24.10;58.60
33007;DHT22;19361;51.598;7.650;2023-09-12T03:50:23;24.10;58.60
33007;DHT22;19361;51.598;7.650;2023-09-12T03:55:24;24.10;60.00
33007;DHT22;19361;51.598;7.650;2023-09-12T04:00:24;24.10;59.30
33007;DHT22;19361;51.598;7.650;2023-09-12T04:05:25;24.10;58.80
33007;DHT22;19361;51.598;7.650;2023-09-12T04:10:26;24.10;59.50
33007;DHT22;19361;51.598;7.650;2023-09-12T04:15:27;24.10;61.20
33007;DHT22;19361;51.598;7.650;2023-09-12T04:20:27;24.00;61.00
33007;DHT22;19361;51.598;7.650;2023-09-12T04:25:28;24.00;60.40
33007;DHT22;19361;51.598;7.650;2023-09-12T04:30:29;24.00;60.70
33007;DHT22;19361;51.598;7.650;2023-09-12T04:35:32;23.90;60.90
33007;DHT22;19361;51.598;7.650;2023-09-12T04:40:33;23.90;60.00
33007;DHT22;19361;51.598;7.650;2023-09-12T04:45:34;23.90;59.80
33007;DHT22;19361;51.598;7.650;2023-09-12T04:50:40;24.00;59.70
33007;DHT22;19361;51.598;7.650;2023-09-12T04:55:41;24.00;59.70
33007;DHT22;19361;51.598;7.650;2023-09-12T05:00:42;24.00;59.90
33007;DHT22;19361;51.598;7.650;2023-09-12T05:05:45;24.00;59.90
33007;DHT22;19361;51.598;7.650;2023-09-12T05:10:47;23.90;59.80
33007;DHT22;19361;51.598;7.650;2023-09-12T05:15:47;24.00;59.90
33007;DHT22;19361;51.598;7.650;2023-09-12T05:20:48;23.90;59.90
33007;DHT22;19361;51.598;7.650;2023-09-12T05:25:49;23.90;60.00
33007;DHT22;19361;51.598;7.650;2023-09-12T05:30:49;23.90;60.30
33007;DHT22;19361;51.598;7.650;2023-09-12T05:35:50;23.90;60.00
33007;DHT22;19361;51.598;7.650;2023-09-12T05:40:51;23.90;60.10
33007;DHT22;19361;51.598;7.650;2023-09-12T05:45:51;23.90;60.00
33007;DHT22;19361;51.598;7.650;2023-09-12T05:50:52;23.90;60.30
33007;DHT22;19361;51.598;7.650;2023-09-12T05:55:53;23.90;60.40
33007;DHT22;19361;51.598;7.650;2023-09-12T06:00:54;23.90;60.00
33007;DHT22;19361;51.598;7.650;2023-09-12T06:05:54;23.90;60.20
33007;DHT22;19361;51.598;7.650;2023-09-12T06:10:55;23.90;60.00
33007;DHT22;19361;51.598;7.650;2023-09-12T06:15:56;23.90;60.90
33007;DHT22;19361;51.598;7.650;2023-09-12T06:20:57;23.90;63.30
33007;DHT22;19361;51.598;7.650;2023-09-12T06:25:58;23.90;61.70
33007;DHT22;19361;51.598;7.650;2023-09-12T06:30:59;23.80;63.10
33007;DHT22;19361;51.598;7.650;2023-09-12T06:36:00;23.80;62.80
33007;DHT22;19361;51.598;7.650;2023-09-12T06:41:00;23.80;61.90
33007;DHT22;19361;51.598;7.650;2023-09-12T06:46:01;23.80;62.20
33007;DHT22;19361;51.598;7.650;2023-09-12T06:51:04;23.80;62.20
33007;DHT22;19361;51.598;7.650;2023-09-12T06:56:07;23.80;61.60
33007;DHT22;19361;51.598;7.650;2023-09-12T07:01:07;23.80;62.00
33007;DHT22;19361;51.598;7.650;2023-09-12T07:06:08;23.80;64.00
33007;DHT22;19361;51.598;7.650;2023-09-12T07:11:09;23.70;62.80
33007;DHT22;19361;51.598;7.650;2023-09-12T07:16:09;23.70;63.40
33007;DHT22;19361;51.598;7.650;2023-09-12T07:21:10;23.70;61.90
33007;DHT22;19361;51.598;7.650;2023-09-12T07:26:13;23.60;62.30
33007;DHT22;19361;51.598;7.650;2023-09-12T07:31:16;23.60;64.70
33007;DHT22;19361;51.598;7.650;2023-09-12T07:36:18;23.50;63.00
33007;DHT22;19361;51.598;7.650;2023-09-12T07:41:19;23.40;63.20
33007;DHT22;19361;51.598;7.650;2023-09-12T07:46:19;23.30;63.70
33007;DHT22;19361;51.598;7.650;2023-09-12T07:51:20;23.20;63.00
33007;DHT22;19361;51.598;7.650;2023-09-12T07:56:23;23.20;64.70
33007;DHT22;19361;51.598;7.650;2023-09-12T08:01:24;23.20;65.70
33007;DHT22;19361;51.598;7.650;2023-09-12T08:06:25;23.20;65.20
33007;DHT22;19361;51.598;7.650;2023-09-12T08:11:26;23.20;65.70
33007;DHT22;19361;51.598;7.650;2023-09-12T08:16:27;23.20;65.70
33007;DHT22;19361;51.598;7.650;2023-09-12T08:21:28;23.20;66.70
33007;DHT22;19361;51.598;7.650;2023-09-12T08:26:29;23.20;66.00
33007;DHT22;19361;51.598;7.650;2023-09-12T08:31:30;23.20;67.90
33007;DHT22;19361;51.598;7.650;2023-09-12T08:36:31;23.20;66.40
33007;DHT22;19361;51.598;7.650;2023-09-12T08:41:32;23.20;66.80
33007;DHT22;19361;51.598;7.650;2023-09-12T08:46:33;23.20;66.10
33007;DHT22;19361;51.598;7.650;2023-09-12T08:51:33;23.20;66.30
33007;DHT22;19361;51.598;7.650;2023-09-12T08:56:34;23.30;66.00
33007;DHT22;19361;51.598;7.650;2023-09-12T09:01:37;23.30;66.00
33007;DHT22;19361;51.598;7.650;2023-09-12T09:06:38;23.40;66.00
33007;DHT22;19361;51.598;7.650;2023-09-12T09:11:40;23.40;65.80
33007;DHT22;19361;51.598;7.650;2023-09-12T09:16:40;23.40;66.40
33007;DHT22;19361;51.598;7.650;2023-09-12T09:21:41;23.50;66.90
33007;DHT22;19361;51.598;7.650;2023-09-12T09:26:46;23.50;66.00
33007;DHT22;19361;51.598;7.650;2023-09-12T09:31:49;23.50;65.90
33007;DHT22;19361;51.598;7.650;2023-09-12T09:36:51;23.60;66.40
33007;DHT22;19361;51.598;7.650;2023-09-12T09:41:53;23.60;66.80
33007;DHT22;19361;51.598;7.650;2023-09-12T09:46:58;23.70;67.50
33007;DHT22;19361;51.598;7.650;2023-09-12T09:52:05;23.90;67.50
33007;DHT22;19361;51.598;7.650;2023-09-12T09:57:06;24.00;67.00
33007;DHT22;19361;51.598;7.650;2023-09-12T10:02:07;24.10;66.80
33007;DHT22;19361;51.598;7.650;2023-09-12T10:07:11;24.20;67.00
33007;DHT22;19361;51.598;7.650;2023-09-12T10:12:11;24.30;68.10
33007;DHT22;19361;51.598;7.650;2023-09-12T10:17:12;24.50;67.00
33007;DHT22;19361;51.598;7.650;2023-09-12T10:22:28;24.60;66.50
33007;DHT22;19361;51.598;7.650;2023-09-12T10:27:32;24.80;66.30
33007;DHT22;19361;51.598;7.650;2023-09-12T10:32:33;25.00;66.40
33007;DHT22;19361;51.598;7.650;2023-09-12T10:37:34;25.10;65.80
33007;DHT22;19361;51.598;7.650;2023-09-12T10:42:35;25.30;65.70
33007;DHT22;19361;51.598;7.650;2023-09-12T10:47:36;25.50;65.60
33007;DHT22;19361;51.598;7.650;2023-09-12T10:52:37;25.60;65.30
33007;DHT22;19361;51.598;7.650;2023-09-12T10:57:59;25.90;65.00
33007;DHT22;19361;51.598;7.650;2023-09-12T11:03:46;26.00;64.20
33007;DHT22;19361;51.598;7.650;2023-09-12T11:08:27;26.30;63.60
33007;DHT22;19361;51.598;7.650;2023-09-12T11:13:29;26.40;64.20
33007;DHT22;19361;51.598;7.650;2023-09-12T11:24:23;26.90;64.00
33007;DHT22;19361;51.598;7.650;2023-09-12T11:29:28;27.00;63.00
33007;DHT22;19361;51.598;7.650;2023-09-12T11:34:36;27.10;62.80
33007;DHT22;19361;51.598;7.650;2023-09-12T11:39:39;27.10;61.90
33007;DHT22;19361;51.598;7.650;2023-09-12T11:44:39;27.10;60.90
33007;DHT22;19361;51.598;7.650;2023-09-12T11:49:41;27.10;61.00
33007;DHT22;19361;51.598;7.650;2023-09-12T11:54:42;27.20;61.50
33007;DHT22;19361;51.598;7.650;2023-09-12T11:59:44;27.30;60.90
33007;DHT22;19361;51.598;7.650;2023-09-12T12:04:45;27.30;60.90
33007;DHT22;19361;51.598;7.650;2023-09-12T12:09:46;27.40;60.60
33007;DHT22;19361;51.598;7.650;2023-09-12T12:14:46;27.50;60.40
33007;DHT22;19361;51.598;7.650;2023-09-12T12:19:47;27.60;60.80
33007;DHT22;19361;51.598;7.650;2023-09-12T12:24:49;27.70;60.90
33007;DHT22;19361;51.598;7.650;2023-09-12T12:29:51;27.80;60.40
33007;DHT22;19361;51.598;7.650;2023-09-12T12:34:52;27.90;60.60
33007;DHT22;19361;51.598;7.650;2023-09-12T12:39:52;28.00;60.10
33007;DHT22;19361;51.598;7.650;2023-09-12T12:44:56;28.10;59.70
33007;DHT22;19361;51.598;7.650;2023-09-12T12:49:56;28.20;59.80
33007;DHT22;19361;51.598;7.650;2023-09-12T12:55:04;28.20;59.40
33007;DHT22;19361;51.598;7.650;2023-09-12T13:00:08;28.30;59.30
33007;DHT22;19361;51.598;7.650;2023-09-12T13:05:27;28.40;59.40
33007;DHT22;19361;51.598;7.650;2023-09-12T13:10:29;28.40;57.90
33007;DHT22;19361;51.598;7.650;2023-09-12T13:15:30;28.40;57.60
33007;DHT22;19361;51.598;7.650;2023-09-12T13:20:31;28.40;58.00
33007;DHT22;19361;51.598;7.650;2023-09-12T13:25:32;28.30;57.50
33007;DHT22;19361;51.598;7.650;2023-09-12T13:30:32;28.30;57.00
33007;DHT22;19361;51.598;7.650;2023-09-12T13:35:33;28.30;56.90
33007;DHT22;19361;51.598;7.650;2023-09-12T13:40:34;28.40;57.00
33007;DHT22;19361;51.598;7.650;2023-09-12T13:45:38;28.30;56.50
33007;DHT22;19361;51.598;7.650;2023-09-12T13:50:39;28.40;55.50
33007;DHT22;19361;51.598;7.650;2023-09-12T13:55:40;28.50;55.10
33007;DHT22;19361;51.598;7.650;2023-09-12T14:00:40;28.60;55.60
33007;DHT22;19361;51.598;7.650;2023-09-12T14:05:41;28.70;54.50
33007;DHT22;19361;51.598;7.650;2023-09-12T14:10:42;28.70;55.30
33007;DHT22;19361;51.598;7.650;2023-09-12T14:15:43;28.80;55.70
33007;DHT22;19361;51.598;7.650;2023-09-12T14:20:43;28.80;55.50
33007;DHT22;19361;51.598;7.650;2023-09-12T14:25:44;28.90;55.60
33007;DHT22;19361;51.598;7.650;2023-09-12T14:30:45;28.90;55.80
33007;DHT22;19361;51.598;7.650;2023-09-12T14:35:46;28.90;54.50
33007;DHT22;19361;51.598;7.650;2023-09-12T14:40:47;28.90;55.20
33007;DHT22;19361;51.598;7.650;2023-09-12T14:45:48;28.90;54.90
33007;DHT22;19361;51.598;7.650;2023-09-12T14:50:48;28.90;55.20
33007;DHT22;19361;51.598;7.650;2023-09-12T14:55:49;28.90;55.40
33007;DHT22;19361;51.598;7.650;2023-09-12T15:00:50;28.90;55.10
33007;DHT22;19361;51.598;7.650;2023-09-12T15:05:50;28.90;54.50
33007;DHT22;19361;51.598;7.650;2023-09-12T15:10:51;28.90;54.40
33007;DHT22;19361;51.598;7.650;2023-09-12T15:15:51;28.90;55.20
33007;DHT22;19361;51.598;7.650;2023-09-12T15:20:52;28.90;55.10
33007;DHT22;19361;51.598;7.650;2023-09-12T15:25:53;28.90;55.30
33007;DHT22;19361;51.598;7.650;2023-09-12T15:30:53;28.90;54.80
33007;DHT22;19361;51.598;7.650;2023-09-12T15:35:54;28.80;55.10
33007;DHT22;19361;51.598;7.650;2023-09-12T15:40:55;28.70;55.00
33007;DHT22;19361;51.598;7.650;2023-09-12T15:45:56;28.60;55.10
33007;DHT22;19361;51.598;7.650;2023-09-12T15:50:57;28.60;55.50
33007;DHT22;19361;51.598;7.650;2023-09-12T15:55:57;28.50;55.60
33007;DHT22;19361;51.598;7.650;2023-09-12T16:00:58;28.40;55.70
33007;DHT22;19361;51.598;7.650;2023-09-12T16:06:00;28.30;55.70
33007;DHT22;19361;51.598;7.650;2023-09-12T16:11:00;28.20;55.80
33007;DHT22;19361;51.598;7.650;2023-09-12T16:16:01;28.10;56.00
33007;DHT22;19361;51.598;7.650;2023-09-12T16:21:01;28.10;56.10
33007;DHT22;19361;51.598;7.650;2023-09-12T16:26:02;28.10;56.60
33007;DHT22;19361;51.598;7.650;2023-09-12T16:31:03;28.00;56.40
33007;DHT22;19361;51.598;7.650;2023-09-12T16:36:04;27.90;56.50
33007;DHT22;19361;51.598;7.650;2023-09-12T16:41:05;27.90;56.70
33007;DHT22;19361;51.598;7.650;2023-09-12T16:46:06;27.90;56.70
33007;DHT22;19361;51.598;7.650;2023-09-12T16:51:08;27.80;56.80
33007;DHT22;19361;51.598;7.650;2023-09-12T16:56:09;27.70;57.10
33007;DHT22;19361;51.598;7.650;2023-09-12T17:01:09;27.60;56.80
33007;DHT22;19361;51.598;7.650;2023-09-12T17:06:10;27.60;56.90
33007;DHT22;19361;51.598;7.650;2023-09-12T17:11:10;27.50;57.50
33007;DHT22;19361;51.598;7.650;2023-09-12T17:16:11;27.50;57.10
33007;DHT22;19361;51.598;7.650;2023-09-12T17:21:12;27.40;57.00
33007;DHT22;19361;51.598;7.650;2023-09-12T17:26:12;27.30;57.10
33007;DHT22;19361;51.598;7.650;2023-09-12T17:31:13;27.30;57.60
33007;DHT22;19361;51.598;7.650;2023-09-12T17:36:15;27.20;57.50
33007;DHT22;19361;51.598;7.650;2023-09-12T17:41:16;27.10;57.60
33007;DHT22;19361;51.598;7.650;2023-09-12T17:46:17;27.00;58.00
33007;DHT22;19361;51.598;7.650;2023-09-12T17:51:18;26.90;58.30
33007;DHT22;19361;51.598;7.650;2023-09-12T17:56:18;26.80;58.30
33007;DHT22;19361;51.598;7.650;2023-09-12T18:01:19;26.70;58.70
33007;DHT22;19361;51.598;7.650;2023-09-12T18:06:20;26.70;58.80
33007;DHT22;19361;51.598;7.650;2023-09-12T18:11:21;26.60;58.90
33007;DHT22;19361;51.598;7.650;2023-09-12T18:16:21;26.50;58.90
33007;DHT22;19361;51.598;7.650;2023-09-12T18:21:22;26.40;59.40
33007;DHT22;19361;51.598;7.650;2023-09-12T18:26:22;26.30;59.90
33007;DHT22;19361;51.598;7.650;2023-09-12T18:31:25;26.30;59.10
33007;DHT22;19361;51.598;7.650;2023-09-12T18:36:25;26.30;59.30
33007;DHT22;19361;51.598;7.650;2023-09-12T18:41:28;26.20;59.60
33007;DHT22;19361;51.598;7.650;2023-09-12T18:46:28;26.20;60.30
33007;DHT22;19361;51.598;7.650;2023-09-12T18:51:29;26.20;59.70
33007;DHT22;19361;51.598;7.650;2023-09-12T18:56:29;26.10;59.40
33007;DHT22;19361;51.598;7.650;2023-09-12T19:01:31;26.10;59.50
33007;DHT22;19361;51.598;7.650;2023-09-12T19:06:32;26.00;60.00
33007;DHT22;19361;51.598;7.650;2023-09-12T19:11:33;26.00;60.60
33007;DHT22;19361;51.598;7.650;2023-09-12T19:16:33;26.00;60.70
33007;DHT22;19361;51.598;7.650;2023-09-12T19:21:34;25.90;61.10
33007;DHT22;19361;51.598;7.650;2023-09-12T19:26:35;25.90;61.00
33007;DHT22;19361;51.598;7.650;2023-09-12T19:31:36;25.90;63.00
33007;DHT22;19361;51.598;7.650;2023-09-12T19:36:37;25.80;61.60
33007;DHT22;19361;51.598;7.650;2023-09-12T19:41:38;25.80;62.40
33007;DHT22;19361;51.598;7.650;2023-09-12T19:46:38;25.70;61.10
33007;DHT22;19361;51.598;7.650;2023-09-12T19:51:40;25.60;61.40
33007;DHT22;19361;51.598;7.650;2023-09-12T19:56:41;25.50;61.30
33007;DHT22;19361;51.598;7.650;2023-09-12T20:01:41;25.50;61.80
33007;DHT22;19361;51.598;7.650;2023-09-12T20:06:43;25.40;61.70
33007;DHT22;19361;51.598;7.650;2023-09-12T20:11:43;25.40;62.10
33007;DHT22;19361;51.598;7.650;2023-09-12T20:16:45;25.40;62.30
33007;DHT22;19361;51.598;7.650;2023-09-12T20:21:45;25.30;62.10
33007;DHT22;19361;51.598;7.650;2023-09-12T20:26:46;25.40;61.20
33007;DHT22;19361;51.598;7.650;2023-09-12T20:31:48;25.40;61.10
33007;DHT22;19361;51.598;7.650;2023-09-12T20:36:49;25.40;62.10
33007;DHT22;19361;51.598;7.650;2023-09-12T20:41:51;25.40;61.20
33007;DHT22;19361;51.598;7.650;2023-09-12T20:46:52;25.40;61.50
33007;DHT22;19361;51.598;7.650;2023-09-12T20:51:53;25.30;61.50
33007;DHT22;19361;51.598;7.650;2023-09-12T20:56:53;25.40;61.70
33007;DHT22;19361;51.598;7.650;2023-09-12T21:01:54;25.40;62.10
33007;DHT22;19361;51.598;7.650;2023-09-12T21:06:54;25.40;62.80
33007;DHT22;19361;51.598;7.650;2023-09-12T21:11:55;25.30;63.00
33007;DHT22;19361;51.598;7.650;2023-09-12T21:16:56;25.30;63.20
33007;DHT22;19361;51.598;7.650;2023-09-12T21:21:56;25.20;63.00
33007;DHT22;19361;51.598;7.650;2023-09-12T21:26:57;25.20;63.10
33007;DHT22;19361;51.598;7.650;2023-09-12T21:31:58;25.20;62.10
33007;DHT22;19361;51.598;7.650;2023-09-12T21:36:58;25.10;62.50
33007;DHT22;19361;51.598;7.650;2023-09-12T21:42:01;25.10;62.00
33007;DHT22;19361;51.598;7.650;2023-09-12T21:47:02;25.00;62.30
33007;DHT22;19361;51.598;7.650;2023-09-12T21:52:04;25.00;62.50
33007;DHT22;19361;51.598;7.650;2023-09-12T21:57:05;24.90;63.70
33007;DHT22;19361;51.598;7.650;2023-09-12T22:02:06;24.90;63.60
33007;DHT22;19361;51.598;7.650;2023-09-12T22:07:06;24.90;64.10
33007;DHT22;19361;51.598;7.650;2023-09-12T22:12:07;24.80;64.30
33007;DHT22;19361;51.598;7.650;2023-09-12T22:17:09;24.80;64.40
33007;DHT22;19361;51.598;7.650;2023-09-12T22:22:09;24.80;64.60
33007;DHT22;19361;51.598;7.650;2023-09-12T22:27:10;24.80;64.50
33007;DHT22;19361;51.598;7.650;2023-09-12T22:32:11;24.80;64.50
33007;DHT22;19361;51.598;7.650;2023-09-12T22:37:12;24.70;63.70
33007;DHT22;19361;51.598;7.650;2023-09-12T22:42:13;24.70;63.30
33007;DHT22;19361;51.598;7.650;2023-09-12T22:47:14;24.70;63.20
33007;DHT22;19361;51.598;7.650;2023-09-12T22:52:15;24.70;63.50
33007;DHT22;19361;51.598;7.650;2023-09-12T22:57:16;24.70;63.90
33007;DHT22;19361;51.598;7.650;2023-09-12T23:02:17;24.60;63.70
33007;DHT22;19361;51.598;7.650;2023-09-12T23:07:17;24.60;63.60
33007;DHT22;19361;51.598;7.650;2023-09-12T23:12:18;24.50;63.90
33007;DHT22;19361;51.598;7.650;2023-09-12T23:17:18;24.50;63.90
33007;DHT22;19361;51.598;7.650;2023-09-12T23:22:19;24.50;64.50
33007;DHT22;19361;51.598;7.650;2023-09-12T23:27:20;24.40;63.80
33007;DHT22;19361;51.598;7.650;2023-09-12T23:32:20;24.40;64.00
33007;DHT22;19361;51.598;7.650;2023-09-12T23:37:24;24.40;65.00
33007;DHT22;19361;51.598;7.650;2023-09-12T23:42:25;24.40;64.30
33007;DHT22;19361;51.598;7.650;2023-09-12T23:47:25;24.30;64.40
33007;DHT22;19361;51.598;7.650;2023-09-12T23:52:26;24.30;64.60
33007;DHT22;19361;51.598;7.650;2023-09-12T23:57:27;24.20;64.80
